sensor_id;sensor_type;location;lat;lon;timestamp;pressure;altitude;pressure_sealevel;temperature;humidity
77299;BME280;66361;52.034;20.656;2023-10-13T04:34:47;99898.91;;;8.28;100.00
77299;BME280;66361;52.034;20.656;2023-10-13T04:38:55;99895.59;;;8.41;100.00
77299;BME280;66361;52.034;20.656;2023-10-13T04:43:01;99895.72;;;8.53;100.00
77299;BME280;66361;52.034;20.656;2023-10-13T04:47:26;99886.16;;;8.66;100.00
77299;BME280;66361;52.034;20.656;2023-10-13T04:51:32;99886.94;;;8.68;100.00
77299;BME280;66361;52.034;20.656;2023-10-13T04:57:02;59316.91;;;-141.48;100.00
77299;BME280;66361;52.034;20.656;2023-10-13T05:01:33;99885.19;;;8.97;100.00
77299;BME280;66361;52.034;20.656;2023-10-13T05:05:53;99882.44;;;8.99;100.00
77299;BME280;66361;52.034;20.656;2023-10-13T05:10:36;99885.00;;;9.14;100.00
77299;BME280;66361;52.034;20.656;2023-10-13T05:14:59;99884.34;;;9.25;100.00
77299;BME280;66361;52.034;20.656;2023-10-13T05:19:19;99898.56;;;9.37;100.00
77299;BME280;66361;52.034;20.656;2023-10-13T05:23:40;99904.88;;;9.48;100.00
77299;BME280;66361;52.034;20.656;2023-10-13T05:28:00;99893.56;;;9.60;100.00
77299;BME280;66361;52.034;20.656;2023-10-13T05:32:37;99906.06;;;9.71;100.00
77299;BME280;66361;52.034;20.656;2023-10-13T05:36:57;99908.78;;;9.84;100.00
77299;BME280;66361;52.034;20.656;2023-10-13T05:41:17;99915.91;;;9.96;100.00
77299;BME280;66361;52.034;20.656;2023-10-13T05:45:38;99923.13;;;10.06;100.00
77299;BME280;66361;52.034;20.656;2023-10-13T05:50:10;99924.88;;;10.20;100.00
77299;BME280;66361;52.034;20.656;2023-10-13T05:54:30;99916.72;;;10.37;100.00
77299;BME280;66361;52.034;20.656;2023-10-13T05:58:52;99924.34;;;10.54;100.00
77299;BME280;66361;52.034;20.656;2023-10-13T06:03:24;99928.28;;;10.61;100.00
77299;BME280;66361;52.034;20.656;2023-10-13T06:07:50;99929.47;;;10.70;100.00
77299;BME280;66361;52.034;20.656;2023-10-13T06:12:22;99937.16;;;10.73;100.00
77299;BME280;66361;52.034;20.656;2023-10-13T06:16:42;99948.38;;;10.77;100.00
77299;BME280;66361;52.034;20.656;2023-10-13T06:21:02;99957.56;;;10.84;100.00
77299;BME280;66361;52.034;20.656;2023-10-13T06:25:23;99955.88;;;10.83;100.00
77299;BME280;66361;52.034;20.656;2023-10-13T06:29:44;99964.13;;;10.91;100.00
77299;BME280;66361;52.034;20.656;2023-10-13T06:33:55;99964.13;;;10.91;100.00
77299;BME280;66361;52.034;20.656;2023-10-13T06:37:58;99967.84;;;11.01;100.00
77299;BME280;66361;52.034;20.656;2023-10-13T06:42:04;99966.28;;;11.11;100.00
77299;BME280;66361;52.034;20.656;2023-10-13T06:46:07;99963.03;;;11.20;100.00
77299;BME280;66361;52.034;20.656;2023-10-13T06:50:16;99966.50;;;11.21;100.00
77299;BME280;66361;52.034;20.656;2023-10-13T06:54:21;99970.75;;;11.23;100.00
77299;BME280;66361;52.034;20.656;2023-10-13T06:58:27;99963.34;;;11.28;100.00
77299;BME280;66361;52.034;20.656;2023-10-13T07:02:30;99967.78;;;11.28;100.00
77299;BME280;66361;52.034;20.656;2023-10-13T07:06:35;99964.63;;;11.35;100.00
77299;BME280;66361;52.034;20.656;2023-10-13T07:10:38;99970.13;;;11.32;100.00
77299;BME280;66361;52.034;20.656;2023-10-13T07:14:51;99970.25;;;11.31;100.00
77299;BME280;66361;52.034;20.656;2023-10-13T07:18:59;99971.16;;;11.42;100.00
77299;BME280;66361;52.034;20.656;2023-10-13T07:23:06;99966.72;;;11.43;100.00
77299;BME280;66361;52.034;20.656;2023-10-13T07:27:10;99968.34;;;11.45;100.00
77299;BME280;66361;52.034;20.656;2023-10-13T07:32:08;59316.91;;;-141.48;100.00
77299;BME280;66361;52.034;20.656;2023-10-13T07:36:14;99969.25;;;11.70;100.00
77299;BME280;66361;52.034;20.656;2023-10-13T07:40:29;99956.88;;;11.70;100.00
77299;BME280;66361;52.034;20.656;2023-10-13T07:44:51;99964.13;;;11.92;100.00
77299;BME280;66361;52.034;20.656;2023-10-13T07:48:58;99962.16;;;12.19;100.00
77299;BME280;66361;52.034;20.656;2023-10-13T07:53:13;99964.31;;;12.38;100.00
77299;BME280;66361;52.034;20.656;2023-10-13T07:57:24;99953.22;;;12.56;100.00
77299;BME280;66361;52.034;20.656;2023-10-13T08:01:31;99955.03;;;12.56;100.00
77299;BME280;66361;52.034;20.656;2023-10-13T08:05:36;99944.91;;;12.50;100.00
77299;BME280;66361;52.034;20.656;2023-10-13T08:09:57;99934.00;;;12.66;100.00
77299;BME280;66361;52.034;20.656;2023-10-13T08:14:02;99932.69;;;12.95;100.00
77299;BME280;66361;52.034;20.656;2023-10-13T08:18:26;99929.84;;;13.20;100.00
77299;BME280;66361;52.034;20.656;2023-10-13T08:22:34;99919.16;;;13.33;100.00
77299;BME280;66361;52.034;20.656;2023-10-13T08:26:40;99924.56;;;13.31;100.00
77299;BME280;66361;52.034;20.656;2023-10-13T08:32:13;59316.91;;;-141.48;100.00
77299;BME280;66361;52.034;20.656;2023-10-13T08:36:47;99922.50;;;13.35;100.00
77299;BME280;66361;52.034;20.656;2023-10-13T08:40:51;99918.31;;;13.43;100.00
77299;BME280;66361;52.034;20.656;2023-10-13T08:45:14;99917.41;;;13.98;100.00
77299;BME280;66361;52.034;20.656;2023-10-13T08:49:44;99919.66;;;14.36;100.00
77299;BME280;66361;52.034;20.656;2023-10-13T08:53:53;99918.06;;;14.45;99.60
77299;BME280;66361;52.034;20.656;2023-10-13T08:58:01;99918.59;;;14.60;99.32
77299;BME280;66361;52.034;20.656;2023-10-13T09:02:15;99922.16;;;14.70;97.02
77299;BME280;66361;52.034;20.656;2023-10-13T09:06:19;99914.16;;;14.81;95.14
77299;BME280;66361;52.034;20.656;2023-10-13T09:10:24;99913.09;;;14.72;98.60
77299;BME280;66361;52.034;20.656;2023-10-13T09:14:38;99905.75;;;14.65;100.00
77299;BME280;66361;52.034;20.656;2023-10-13T09:18:46;99903.78;;;14.78;100.00
77299;BME280;66361;52.034;20.656;2023-10-13T09:22:49;99903.03;;;15.17;98.84
77299;BME280;66361;52.034;20.656;2023-10-13T09:26:57;99902.13;;;15.48;97.45
77299;BME280;66361;52.034;20.656;2023-10-13T09:31:04;99899.56;;;15.77;97.66
77299;BME280;66361;52.034;20.656;2023-10-13T09:35:17;99904.03;;;16.36;95.24
77299;BME280;66361;52.034;20.656;2023-10-13T09:39:23;99900.81;;;16.42;91.84
77299;BME280;66361;52.034;20.656;2023-10-13T09:43:36;99903.91;;;16.47;92.03
77299;BME280;66361;52.034;20.656;2023-10-13T09:47:45;99892.56;;;16.83;93.94
77299;BME280;66361;52.034;20.656;2023-10-13T09:51:55;99875.41;;;17.05;89.85
77299;BME280;66361;52.034;20.656;2023-10-13T09:56:06;99872.22;;;17.38;88.88
77299;BME280;66361;52.034;20.656;2023-10-13T10:00:18;99885.25;;;17.61;88.60
77299;BME280;66361;52.034;20.656;2023-10-13T10:04:53;99876.44;;;17.78;87.36
77299;BME280;66361;52.034;20.656;2023-10-13T10:09:15;99865.78;;;17.96;88.13
77299;BME280;66361;52.034;20.656;2023-10-13T10:13:30;99859.72;;;18.38;85.80
77299;BME280;66361;52.034;20.656;2023-10-13T10:17:42;99859.19;;;18.70;85.71
77299;BME280;66361;52.034;20.656;2023-10-13T10:21:46;99852.53;;;18.74;82.76
77299;BME280;66361;52.034;20.656;2023-10-13T10:25:49;99837.72;;;18.62;83.76
77299;BME280;66361;52.034;20.656;2023-10-13T10:29:53;99841.91;;;18.47;85.81
77299;BME280;66361;52.034;20.656;2023-10-13T10:33:56;99835.44;;;18.67;85.15
77299;BME280;66361;52.034;20.656;2023-10-13T10:38:12;99830.09;;;18.93;83.50
77299;BME280;66361;52.034;20.656;2023-10-13T10:42:17;99818.00;;;19.07;84.90
77299;BME280;66361;52.034;20.656;2023-10-13T10:46:26;99817.66;;;19.35;81.42
77299;BME280;66361;52.034;20.656;2023-10-13T10:50:30;99805.88;;;19.20;82.49
77299;BME280;66361;52.034;20.656;2023-10-13T10:54:38;99797.16;;;18.93;82.85
77299;BME280;66361;52.034;20.656;2023-10-13T10:58:45;99796.19;;;18.68;85.71
77299;BME280;66361;52.034;20.656;2023-10-13T11:02:54;99793.19;;;18.53;84.61
77299;BME280;66361;52.034;20.656;2023-10-13T11:06:58;99787.84;;;18.53;85.98
77299;BME280;66361;52.034;20.656;2023-10-13T11:11:03;99782.59;;;18.44;86.80
77299;BME280;66361;52.034;20.656;2023-10-13T11:15:08;99785.81;;;18.65;84.69
77299;BME280;66361;52.034;20.656;2023-10-13T11:19:17;99771.81;;;18.71;83.71
77299;BME280;66361;52.034;20.656;2023-10-13T11:23:27;99758.91;;;18.66;83.68
77299;BME280;66361;52.034;20.656;2023-10-13T11:27:32;59316.91;;;18.67;62.28
77299;BME280;66361;52.034;20.656;2023-10-13T11:31:57;59316.91;;;-141.48;100.00
77299;BME280;66361;52.034;20.656;2023-10-13T11:36:02;59316.91;;;-141.48;100.00
77299;BME280;66361;52.034;20.656;2023-10-13T11:40:10;59316.91;;;-141.48;100.00
77299;BME280;66361;52.034;20.656;2023-10-13T11:44:18;59316.91;;;-141.48;100.00
77299;BME280;66361;52.034;20.656;2023-10-13T11:48:32;59316.91;;;-141.48;100.00
77299;BME280;66361;52.034;20.656;2023-10-13T11:52:38;59316.91;;;-141.48;100.00
77299;BME280;66361;52.034;20.656;2023-10-13T11:56:44;59316.91;;;-141.48;100.00
77299;BME280;66361;52.034;20.656;2023-10-13T12:00:49;59316.91;;;-141.48;100.00
77299;BME280;66361;52.034;20.656;2023-10-13T12:05:21;59316.91;;;-141.48;100.00
77299;BME280;66361;52.034;20.656;2023-10-13T12:09:32;59316.91;;;-141.48;100.00
77299;BME280;66361;52.034;20.656;2023-10-13T12:13:45;59316.91;;;-141.48;100.00
77299;BME280;66361;52.034;20.656;2023-10-13T12:17:50;59316.91;;;-141.48;100.00
77299;BME280;66361;52.034;20.656;2023-10-13T12:21:54;59316.91;;;-141.48;100.00
77299;BME280;66361;52.034;20.656;2023-10-13T12:25:57;59316.91;;;-141.48;100.00
77299;BME280;66361;52.034;20.656;2023-10-13T12:30:02;59316.91;;;-141.48;100.00
77299;BME280;66361;52.034;20.656;2023-10-13T12:34:11;59316.91;;;-141.48;100.00
77299;BME280;66361;52.034;20.656;2023-10-13T12:38:21;59316.91;;;-141.48;100.00
77299;BME280;66361;52.034;20.656;2023-10-13T12:42:38;59316.91;;;-141.48;100.00
77299;BME280;66361;52.034;20.656;2023-10-13T12:46:58;59316.91;;;-141.48;100.00
77299;BME280;66361;52.034;20.656;2023-10-13T12:51:20;59316.91;;;-141.48;100.00
77299;BME280;66361;52.034;20.656;2023-10-13T12:55:42;59316.91;;;-141.48;100.00
77299;BME280;66361;52.034;20.656;2023-10-13T12:59:45;59316.91;;;-141.48;100.00
77299;BME280;66361;52.034;20.656;2023-10-13T13:03:48;59316.91;;;-141.48;100.00
77299;BME280;66361;52.034;20.656;2023-10-13T13:07:53;59316.91;;;-141.48;100.00
77299;BME280;66361;52.034;20.656;2023-10-13T13:11:57;59316.91;;;-141.48;100.00
77299;BME280;66361;52.034;20.656;2023-10-13T13:16:00;59316.91;;;-141.48;100.00
77299;BME280;66361;52.034;20.656;2023-10-13T13:20:06;59316.91;;;-141.48;100.00
77299;BME280;66361;52.034;20.656;2023-10-13T13:24:28;59316.91;;;-141.48;100.00
77299;BME280;66361;52.034;20.656;2023-10-13T13:28:32;59316.91;;;-141.48;100.00
77299;BME280;66361;52.034;20.656;2023-10-13T13:32:39;59316.91;;;-141.48;100.00
77299;BME280;66361;52.034;20.656;2023-10-13T13:36:43;59316.91;;;-141.48;100.00
77299;BME280;66361;52.034;20.656;2023-10-13T13:40:52;59316.91;;;-141.48;100.00
77299;BME280;66361;52.034;20.656;2023-10-13T13:44:57;59316.91;;;-141.48;100.00
77299;BME280;66361;52.034;20.656;2023-10-13T13:49:01;59316.91;;;-141.48;100.00
77299;BME280;66361;52.034;20.656;2023-10-13T13:53:08;59316.91;;;-141.48;100.00
77299;BME280;66361;52.034;20.656;2023-10-13T13:57:14;59316.91;;;-141.48;100.00
77299;BME280;66361;52.034;20.656;2023-10-13T14:01:19;59316.91;;;-141.48;100.00
77299;BME280;66361;52.034;20.656;2023-10-13T14:05:24;59316.91;;;-141.48;100.00
77299;BME280;66361;52.034;20.656;2023-10-13T14:09:28;59316.91;;;-141.48;100.00
77299;BME280;66361;52.034;20.656;2023-10-13T14:13:43;59316.91;;;-141.48;100.00
77299;BME280;66361;52.034;20.656;2023-10-13T14:17:51;59316.91;;;-141.48;100.00
77299;BME280;66361;52.034;20.656;2023-10-13T14:21:54;59316.91;;;-141.48;100.00
77299;BME280;66361;52.034;20.656;2023-10-13T14:26:00;59316.91;;;-141.48;100.00
77299;BME280;66361;52.034;20.656;2023-10-13T14:30:05;59316.91;;;-141.48;100.00
77299;BME280;66361;52.034;20.656;2023-10-13T14:34:11;59316.91;;;-141.48;100.00
77299;BME280;66361;52.034;20.656;2023-10-13T14:38:14;59316.91;;;-141.48;100.00
77299;BME280;66361;52.034;20.656;2023-10-13T14:42:17;59316.91;;;-141.48;100.00
77299;BME280;66361;52.034;20.656;2023-10-13T14:46:25;59316.91;;;-141.48;100.00
77299;BME280;66361;52.034;20.656;2023-10-13T14:50:28;59316.91;;;-141.48;100.00
77299;BME280;66361;52.034;20.656;2023-10-13T14:54:31;59316.91;;;-141.48;100.00
77299;BME280;66361;52.034;20.656;2023-10-13T14:58:37;59316.91;;;-141.48;100.00
77299;BME280;66361;52.034;20.656;2023-10-13T15:02:45;59316.91;;;-141.48;100.00
77299;BME280;66361;52.034;20.656;2023-10-13T15:06:52;59316.91;;;-141.48;100.00
77299;BME280;66361;52.034;20.656;2023-10-13T15:10:55;59316.91;;;-141.48;100.00
77299;BME280;66361;52.034;20.656;2023-10-13T15:15:04;59316.91;;;-141.48;100.00
77299;BME280;66361;52.034;20.656;2023-10-13T15:19:16;59316.91;;;-141.48;100.00
77299;BME280;66361;52.034;20.656;2023-10-13T15:23:19;59316.91;;;-141.48;100.00
77299;BME280;66361;52.034;20.656;2023-10-13T15:27:25;59316.91;;;-141.48;100.00
77299;BME280;66361;52.034;20.656;2023-10-13T15:31:30;59316.91;;;-141.48;100.00
77299;BME280;66361;52.034;20.656;2023-10-13T15:35:41;59316.91;;;-141.48;100.00
77299;BME280;66361;52.034;20.656;2023-10-13T15:39:47;59316.91;;;-141.48;100.00
77299;BME280;66361;52.034;20.656;2023-10-13T15:43:50;59316.91;;;-141.48;100.00
77299;BME280;66361;52.034;20.656;2023-10-13T15:47:54;59316.91;;;-141.48;100.00
77299;BME280;66361;52.034;20.656;2023-10-13T15:52:01;59316.91;;;-141.48;100.00
77299;BME280;66361;52.034;20.656;2023-10-13T15:56:05;59316.91;;;-141.48;100.00
77299;BME280;66361;52.034;20.656;2023-10-13T16:00:13;59316.91;;;-141.48;100.00
77299;BME280;66361;52.034;20.656;2023-10-13T16:04:28;59316.91;;;-141.48;100.00
77299;BME280;66361;52.034;20.656;2023-10-13T16:08:34;59316.91;;;-141.48;100.00
77299;BME280;66361;52.034;20.656;2023-10-13T16:12:41;59316.91;;;-141.48;100.00
77299;BME280;66361;52.034;20.656;2023-10-13T16:16:48;59316.91;;;-141.48;100.00
77299;BME280;66361;52.034;20.656;2023-10-13T16:20:51;59316.91;;;-141.48;100.00
77299;BME280;66361;52.034;20.656;2023-10-13T16:24:58;59316.91;;;-141.48;100.00
77299;BME280;66361;52.034;20.656;2023-10-13T16:29:19;59316.91;;;-141.48;100.00
77299;BME280;66361;52.034;20.656;2023-10-13T16:33:23;59316.91;;;-141.48;100.00
77299;BME280;66361;52.034;20.656;2023-10-13T16:37:26;59316.91;;;-141.48;100.00
77299;BME280;66361;52.034;20.656;2023-10-13T16:41:34;59316.91;;;-141.48;100.00
77299;BME280;66361;52.034;20.656;2023-10-13T16:45:37;59316.91;;;-141.48;100.00
77299;BME280;66361;52.034;20.656;2023-10-13T16:49:46;59316.91;;;-141.48;100.00
77299;BME280;66361;52.034;20.656;2023-10-13T16:53:49;59316.91;;;-141.48;100.00
77299;BME280;66361;52.034;20.656;2023-10-13T16:57:54;59316.91;;;-141.48;100.00
77299;BME280;66361;52.034;20.656;2023-10-13T17:01:57;59316.91;;;-141.48;100.00
77299;BME280;66361;52.034;20.656;2023-10-13T17:06:02;59316.91;;;-141.48;100.00
77299;BME280;66361;52.034;20.656;2023-10-13T17:10:06;59316.91;;;-141.48;100.00
77299;BME280;66361;52.034;20.656;2023-10-13T17:14:11;59316.91;;;-141.48;100.00
77299;BME280;66361;52.034;20.656;2023-10-13T17:18:14;59316.91;;;-141.48;100.00
77299;BME280;66361;52.034;20.656;2023-10-13T17:22:18;59316.91;;;-141.48;100.00
77299;BME280;66361;52.034;20.656;2023-10-13T17:26:23;59316.91;;;-141.48;100.00
77299;BME280;66361;52.034;20.656;2023-10-13T17:30:29;59316.91;;;-141.48;100.00
77299;BME280;66361;52.034;20.656;2023-10-13T17:34:33;59316.91;;;-141.48;100.00
77299;BME280;66361;52.034;20.656;2023-10-13T17:38:37;59316.91;;;-141.48;100.00
77299;BME280;66361;52.034;20.656;2023-10-13T17:42:41;59316.91;;;-141.48;100.00
77299;BME280;66361;52.034;20.656;2023-10-13T17:46:46;59316.91;;;-141.48;100.00
77299;BME280;66361;52.034;20.656;2023-10-13T17:50:49;59316.91;;;-141.48;100.00
77299;BME280;66361;52.034;20.656;2023-10-13T17:54:53;59316.91;;;-141.48;100.00
77299;BME280;66361;52.034;20.656;2023-10-13T17:58:56;59316.91;;;-141.48;100.00
77299;BME280;66361;52.034;20.656;2023-10-13T18:03:03;59316.91;;;-141.48;100.00
77299;BME280;66361;52.034;20.656;2023-10-13T18:07:11;59316.91;;;-141.48;100.00
77299;BME280;66361;52.034;20.656;2023-10-13T18:11:16;59316.91;;;-141.48;100.00
77299;BME280;66361;52.034;20.656;2023-10-13T18:15:20;59316.91;;;-141.48;100.00
77299;BME280;66361;52.034;20.656;2023-10-13T18:19:26;59316.91;;;-141.48;100.00
77299;BME280;66361;52.034;20.656;2023-10-13T18:23:35;59316.91;;;-141.48;100.00
77299;BME280;66361;52.034;20.656;2023-10-13T18:27:42;59316.91;;;-141.48;100.00
77299;BME280;66361;52.034;20.656;2023-10-13T18:31:45;59316.91;;;-141.48;100.00
77299;BME280;66361;52.034;20.656;2023-10-13T18:35:50;59316.91;;;-141.48;100.00
77299;BME280;66361;52.034;20.656;2023-10-13T18:39:53;59316.91;;;-141.48;100.00
77299;BME280;66361;52.034;20.656;2023-10-13T18:43:57;59316.91;;;-141.48;100.00
77299;BME280;66361;52.034;20.656;2023-10-13T18:48:01;59316.91;;;-141.48;100.00
77299;BME280;66361;52.034;20.656;2023-10-13T18:52:06;59316.91;;;-141.48;100.00
77299;BME280;66361;52.034;20.656;2023-10-13T18:56:12;59316.91;;;-141.48;100.00
77299;BME280;66361;52.034;20.656;2023-10-13T19:00:16;59316.91;;;-141.48;100.00
77299;BME280;66361;52.034;20.656;2023-10-13T19:04:24;59316.91;;;-141.48;100.00
77299;BME280;66361;52.034;20.656;2023-10-13T19:08:30;59316.91;;;-141.48;100.00
77299;BME280;66361;52.034;20.656;2023-10-13T19:12:34;59316.91;;;-141.48;100.00
77299;BME280;66361;52.034;20.656;2023-10-13T19:16:40;59316.91;;;-141.48;100.00
77299;BME280;66361;52.034;20.656;2023-10-13T19:20:47;59316.91;;;-141.48;100.00
77299;BME280;66361;52.034;20.656;2023-10-13T19:24:52;59316.91;;;-141.48;100.00
77299;BME280;66361;52.034;20.656;2023-10-13T19:28:57;59316.91;;;-141.48;100.00
77299;BME280;66361;52.034;20.656;2023-10-13T19:33:00;59316.91;;;-141.48;100.00
77299;BME280;66361;52.034;20.656;2023-10-13T19:37:03;59316.91;;;-141.48;100.00
77299;BME280;66361;52.034;20.656;2023-10-13T19:41:14;59316.91;;;-141.48;100.00
77299;BME280;66361;52.034;20.656;2023-10-13T19:45:18;59316.91;;;-141.48;100.00
77299;BME280;66361;52.034;20.656;2023-10-13T19:49:22;59316.91;;;-141.48;100.00
77299;BME280;66361;52.034;20.656;2023-10-13T19:53:27;59316.91;;;-141.48;100.00
77299;BME280;66361;52.034;20.656;2023-10-13T19:57:31;59316.91;;;-141.48;100.00
77299;BME280;66361;52.034;20.656;2023-10-13T20:01:38;59316.91;;;-141.48;100.00
77299;BME280;66361;52.034;20.656;2023-10-13T20:05:44;59316.91;;;-141.48;100.00
77299;BME280;66361;52.034;20.656;2023-10-13T20:09:47;59316.91;;;-141.48;100.00
77299;BME280;66361;52.034;20.656;2023-10-13T20:13:52;59316.91;;;-141.48;100.00
77299;BME280;66361;52.034;20.656;2023-10-13T20:17:58;59316.91;;;-141.48;100.00
77299;BME280;66361;52.034;20.656;2023-10-13T20:22:09;59316.91;;;-141.48;100.00
77299;BME280;66361;52.034;20.656;2023-10-13T20:26:13;59316.91;;;-141.48;100.00
77299;BME280;66361;52.034;20.656;2023-10-13T20:30:18;59316.91;;;-141.48;100.00
77299;BME280;66361;52.034;20.656;2023-10-13T20:34:23;59316.91;;;-141.48;100.00
77299;BME280;66361;52.034;20.656;2023-10-13T20:38:31;59316.91;;;-141.48;100.00
77299;BME280;66361;52.034;20.656;2023-10-13T20:42:34;59316.91;;;-141.48;100.00
77299;BME280;66361;52.034;20.656;2023-10-13T20:46:40;59316.91;;;-141.48;100.00
77299;BME280;66361;52.034;20.656;2023-10-13T20:50:43;59316.91;;;-141.48;100.00
77299;BME280;66361;52.034;20.656;2023-10-13T20:54:48;59316.91;;;-141.48;100.00
77299;BME280;66361;52.034;20.656;2023-10-13T20:58:53;59316.91;;;-141.48;100.00
77299;BME280;66361;52.034;20.656;2023-10-13T21:03:03;59316.91;;;-141.48;100.00
77299;BME280;66361;52.034;20.656;2023-10-13T21:07:09;59316.91;;;-141.48;100.00
77299;BME280;66361;52.034;20.656;2023-10-13T21:11:12;59316.91;;;-141.48;100.00
77299;BME280;66361;52.034;20.656;2023-10-13T21:15:16;59316.91;;;-141.48;100.00
77299;BME280;66361;52.034;20.656;2023-10-13T21:19:21;59316.91;;;-141.48;100.00
77299;BME280;66361;52.034;20.656;2023-10-13T21:23:25;59316.91;;;-141.48;100.00
77299;BME280;66361;52.034;20.656;2023-10-13T21:27:29;59316.91;;;-141.48;100.00
77299;BME280;66361;52.034;20.656;2023-10-13T21:31:33;59316.91;;;-141.48;100.00
77299;BME280;66361;52.034;20.656;2023-10-13T21:35:39;59316.91;;;-141.48;100.00
77299;BME280;66361;52.034;20.656;2023-10-13T21:39:42;59316.91;;;-141.48;100.00
77299;BME280;66361;52.034;20.656;2023-10-13T21:43:51;59316.91;;;-141.48;100.00
77299;BME280;66361;52.034;20.656;2023-10-13T21:47:55;59316.91;;;-141.48;100.00
77299;BME280;66361;52.034;20.656;2023-10-13T21:52:01;59316.91;;;-141.48;100.00
77299;BME280;66361;52.034;20.656;2023-10-13T21:56:12;59316.91;;;-141.48;100.00
77299;BME280;66361;52.034;20.656;2023-10-13T22:00:17;59316.91;;;-141.48;100.00
77299;BME280;66361;52.034;20.656;2023-10-13T22:04:44;59316.91;;;-141.48;100.00
77299;BME280;66361;52.034;20.656;2023-10-13T22:08:50;59316.91;;;-141.48;100.00
77299;BME280;66361;52.034;20.656;2023-10-13T22:12:53;59316.91;;;-141.48;100.00
77299;BME280;66361;52.034;20.656;2023-10-13T22:16:59;59316.91;;;-141.48;100.00
77299;BME280;66361;52.034;20.656;2023-10-13T22:21:02;59316.91;;;-141.48;100.00
77299;BME280;66361;52.034;20.656;2023-10-13T22:25:08;59316.91;;;-141.48;100.00
77299;BME280;66361;52.034;20.656;2023-10-13T22:29:13;59316.91;;;-141.48;100.00
77299;BME280;66361;52.034;20.656;2023-10-13T22:33:16;59316.91;;;-141.48;100.00
77299;BME280;66361;52.034;20.656;2023-10-13T22:37:19;59316.91;;;-141.48;100.00
77299;BME280;66361;52.034;20.656;2023-10-13T22:41:25;59316.91;;;-141.48;100.00
77299;BME280;66361;52.034;20.656;2023-10-13T22:51:16;59316.91;;;-141.48;100.00
77299;BME280;66361;52.034;20.656;2023-10-13T22:55:19;59316.91;;;-141.48;100.00
77299;BME280;66361;52.034;20.656;2023-10-13T22:59:23;59316.91;;;-141.48;100.00
77299;BME280;66361;52.034;20.656;2023-10-13T23:03:29;59316.91;;;-141.48;100.00
77299;BME280;66361;52.034;20.656;2023-10-13T23:07:40;59316.91;;;-141.48;100.00
77299;BME280;66361;52.034;20.656;2023-10-13T23:11:44;59316.91;;;-141.48;100.00
77299;BME280;66361;52.034;20.656;2023-10-13T23:15:52;59316.91;;;-141.48;100.00
77299;BME280;66361;52.034;20.656;2023-10-13T23:19:57;59316.91;;;-141.48;100.00
77299;BME280;66361;52.034;20.656;2023-10-13T23:24:00;59316.91;;;-141.48;100.00
77299;BME280;66361;52.034;20.656;2023-10-13T23:28:07;59316.91;;;-141.48;100.00
